createdAt,value
2023-01-17T00:01:16.290Z,6.22
2023-01-17T00:04:06.428Z,6.20
2023-01-17T00:06:56.654Z,6.26
2023-01-17T00:09:46.558Z,6.05
2023-01-17T00:12:18.976Z,6.08
2023-01-17T00:14:52.892Z,6.29
2023-01-17T00:17:30.007Z,6.28
2023-01-17T00:20:20.328Z,6.05
2023-01-17T00:23:10.435Z,6.14
2023-01-17T00:26:00.775Z,6.30
2023-01-17T00:28:33.602Z,6.13
2023-01-17T00:31:06.846Z,6.27
2023-01-17T00:33:38.306Z,6.33
2023-01-17T00:36:10.987Z,6.30
2023-01-17T00:38:42.537Z,6.38
2023-01-17T00:41:15.316Z,6.51
2023-01-17T00:44:05.151Z,6.55
2023-01-17T00:46:55.310Z,6.48
2023-01-17T00:49:45.151Z,6.47
2023-01-17T00:52:35.274Z,6.46
2023-01-17T00:55:26.065Z,6.54
2023-01-17T00:58:16.379Z,6.53
2023-01-17T01:01:06.188Z,6.51
2023-01-17T01:03:56.415Z,6.61
2023-01-17T01:06:47.751Z,6.62
2023-01-17T01:09:37.777Z,6.67
2023-01-17T01:12:27.904Z,6.60
2023-01-17T01:15:17.705Z,6.57
2023-01-17T01:18:07.685Z,6.54
2023-01-17T01:20:57.762Z,6.52
2023-01-17T01:23:47.831Z,6.55
2023-01-17T01:26:37.524Z,6.48
2023-01-17T01:29:27.455Z,6.50
2023-01-17T01:32:19.981Z,6.45
2023-01-17T01:34:52.839Z,6.48
2023-01-17T01:37:25.494Z,6.50
2023-01-17T01:39:57.988Z,6.50
2023-01-17T01:42:30.449Z,6.57
2023-01-17T01:45:02.811Z,6.55
2023-01-17T01:47:40.806Z,6.49
2023-01-17T01:50:15.427Z,6.51
2023-01-17T01:52:51.497Z,6.48
2023-01-17T01:55:30.118Z,6.44
2023-01-17T01:58:09.826Z,6.47
2023-01-17T02:00:43.376Z,6.53
2023-01-17T02:03:19.618Z,6.49
2023-01-17T02:05:52.135Z,6.50
2023-01-17T02:08:25.993Z,6.43
2023-01-17T02:10:59.560Z,6.22
2023-01-17T02:13:32.590Z,6.39
2023-01-17T02:16:15.349Z,6.39
2023-01-17T02:19:01.166Z,6.39
2023-01-17T02:21:37.825Z,6.42
2023-01-17T02:24:58.132Z,6.46
2023-01-17T02:27:39.500Z,6.51
2023-01-17T02:30:29.788Z,6.53
2023-01-17T02:33:13.371Z,6.53
2023-01-17T02:35:56.319Z,6.56
2023-01-17T02:38:38.239Z,6.52
2023-01-17T02:41:17.050Z,6.47
2023-01-17T02:43:52.284Z,6.45
2023-01-17T02:46:24.672Z,6.47
2023-01-17T02:48:58.975Z,6.46
2023-01-17T02:51:47.428Z,6.28
2023-01-17T02:54:47.177Z,6.20
2023-01-17T02:57:40.586Z,6.31
2023-01-17T03:00:22.421Z,6.26
2023-01-17T03:03:03.829Z,6.23
2023-01-17T03:05:42.644Z,6.20
2023-01-17T03:08:17.085Z,6.27
2023-01-17T03:10:49.708Z,6.19
2023-01-17T03:13:22.583Z,6.12
2023-01-17T03:15:55.028Z,6.07
2023-01-17T03:18:27.545Z,6.01
2023-01-17T03:20:59.953Z,6.11
2023-01-17T03:23:32.337Z,6.06
2023-01-17T03:26:04.970Z,6.25
2023-01-17T03:28:37.595Z,6.26
2023-01-17T03:31:10.647Z,6.22
2023-01-17T03:33:43.001Z,6.16
2023-01-17T03:36:15.512Z,6.00
2023-01-17T03:38:48.104Z,6.01
2023-01-17T03:41:20.668Z,6.06
2023-01-17T03:43:53.180Z,6.20
2023-01-17T03:46:27.691Z,6.21
2023-01-17T03:49:00.301Z,6.23
2023-01-17T03:51:32.669Z,6.14
2023-01-17T03:54:05.208Z,6.13
2023-01-17T03:56:37.551Z,6.00
2023-01-17T03:59:12.229Z,5.98
2023-01-17T04:01:45.491Z,6.02
2023-01-17T04:04:17.937Z,5.98
2023-01-17T04:06:50.400Z,6.11
2023-01-17T04:09:23.158Z,6.14
2023-01-17T04:11:55.632Z,6.15
2023-01-17T04:14:28.292Z,6.05
2023-01-17T04:17:01.444Z,6.11
2023-01-17T04:19:35.244Z,6.16
2023-01-17T04:22:07.783Z,6.18
2023-01-17T04:24:40.133Z,6.24
2023-01-17T04:27:14.441Z,6.19
2023-01-17T04:29:47.048Z,6.24
2023-01-17T04:32:19.588Z,6.25
2023-01-17T04:34:52.062Z,6.20
2023-01-17T04:37:24.901Z,6.24
2023-01-17T04:39:57.479Z,6.08
2023-01-17T04:42:30.311Z,6.18
2023-01-17T04:45:03.083Z,6.07
2023-01-17T04:47:35.973Z,6.00
2023-01-17T04:50:09.715Z,6.00
2023-01-17T04:52:42.093Z,5.92
2023-01-17T04:55:14.886Z,5.97
2023-01-17T04:57:48.548Z,6.05
2023-01-17T05:00:24.304Z,6.04
2023-01-17T05:02:56.916Z,6.15
2023-01-17T05:05:29.410Z,6.22
2023-01-17T05:08:01.851Z,6.11
2023-01-17T05:10:34.510Z,6.11
2023-01-17T05:13:07.052Z,6.05
2023-01-17T05:15:40.185Z,6.25
2023-01-17T05:18:15.442Z,6.26
2023-01-17T05:20:47.915Z,6.23
2023-01-17T05:23:20.609Z,6.25
2023-01-17T05:25:53.022Z,6.29
2023-01-17T05:28:25.640Z,6.27
2023-01-17T05:30:58.200Z,6.31
2023-01-17T05:33:30.793Z,6.16
2023-01-17T05:36:03.753Z,6.40
2023-01-17T05:38:36.137Z,6.40
2023-01-17T05:41:09.001Z,6.22
2023-01-17T05:43:41.430Z,6.31
2023-01-17T05:46:16.180Z,6.22
2023-01-17T05:48:46.954Z,6.22
2023-01-17T05:51:19.693Z,6.23
2023-01-17T05:53:52.072Z,6.13
2023-01-17T05:56:24.596Z,6.08
2023-01-17T05:58:57.004Z,6.17
2023-01-17T06:01:29.632Z,6.33
2023-01-17T06:04:01.986Z,6.35
2023-01-17T06:06:34.395Z,6.35
2023-01-17T06:09:07.141Z,6.28
2023-01-17T06:11:42.828Z,6.33
2023-01-17T06:14:15.467Z,6.49
2023-01-17T06:16:48.054Z,6.44
2023-01-17T06:19:20.509Z,6.39
2023-01-17T06:21:53.017Z,6.43
2023-01-17T06:24:25.439Z,6.58
2023-01-17T06:26:57.952Z,6.43
2023-01-17T06:29:30.455Z,6.35
2023-01-17T06:32:03.113Z,6.39
2023-01-17T06:34:35.490Z,6.41
2023-01-17T06:37:08.062Z,6.38
2023-01-17T06:39:40.460Z,6.35
2023-01-17T06:42:13.682Z,6.30
2023-01-17T06:44:46.167Z,6.32
2023-01-17T06:47:18.712Z,6.23
2023-01-17T06:49:51.221Z,6.39
2023-01-17T06:52:23.956Z,6.44
2023-01-17T06:54:56.815Z,6.40
2023-01-17T06:57:29.518Z,6.42
2023-01-17T07:00:02.489Z,6.37
2023-01-17T07:02:34.912Z,6.53
2023-01-17T07:05:10.045Z,6.44
2023-01-17T07:07:40.815Z,6.36
2023-01-17T07:10:15.033Z,6.39
2023-01-17T07:12:47.867Z,6.49
2023-01-17T07:15:21.008Z,6.49
2023-01-17T07:17:53.800Z,6.50
2023-01-17T07:20:26.231Z,6.52
2023-01-17T07:22:59.003Z,6.59
2023-01-17T07:25:31.430Z,6.61
2023-01-17T07:28:03.939Z,6.57
2023-01-17T07:30:36.769Z,6.67
2023-01-17T07:33:09.993Z,6.62
2023-01-17T07:35:43.176Z,6.55
2023-01-17T07:38:18.325Z,6.60
2023-01-17T07:40:50.741Z,6.73
2023-01-17T07:43:23.784Z,6.77
2023-01-17T07:45:56.429Z,6.62
2023-01-17T07:48:29.286Z,6.58
2023-01-17T07:51:01.766Z,6.59
2023-01-17T07:53:35.853Z,6.52
2023-01-17T07:56:09.977Z,6.46
2023-01-17T07:58:43.007Z,6.50
2023-01-17T08:01:16.823Z,6.63
2023-01-17T08:03:53.431Z,6.64
2023-01-17T08:06:27.752Z,6.55
2023-01-17T08:09:00.161Z,6.37
2023-01-17T08:11:32.775Z,6.52
2023-01-17T08:14:05.936Z,6.68
2023-01-17T08:16:40.257Z,6.85
2023-01-17T08:19:12.954Z,6.87
2023-01-17T08:21:45.564Z,6.88
2023-01-17T08:24:18.063Z,6.91
2023-01-17T08:26:50.692Z,6.92
2023-01-17T08:29:23.811Z,6.97
2023-01-17T08:31:56.296Z,6.95
2023-01-17T08:34:28.936Z,6.88
2023-01-17T08:37:01.281Z,6.78
2023-01-17T08:39:33.804Z,6.84
2023-01-17T08:42:06.248Z,6.99
2023-01-17T08:44:39.937Z,6.99
2023-01-17T08:47:12.464Z,6.89
2023-01-17T08:49:45.378Z,7.05
2023-01-17T08:52:17.813Z,7.00
2023-01-17T08:54:50.399Z,7.02
2023-01-17T08:57:23.384Z,6.97
2023-01-17T08:59:59.351Z,7.00
2023-01-17T09:02:32.032Z,7.04
2023-01-17T09:05:04.682Z,7.15
2023-01-17T09:07:37.128Z,7.18
2023-01-17T09:10:10.856Z,7.28
2023-01-17T09:12:43.243Z,7.27
2023-01-17T09:15:20.330Z,7.27
2023-01-17T09:17:56.010Z,7.47
2023-01-17T09:20:30.988Z,7.51
2023-01-17T09:23:04.946Z,7.45
2023-01-17T09:25:37.417Z,7.49
2023-01-17T09:28:09.895Z,7.47
2023-01-17T09:30:42.453Z,7.47
2023-01-17T09:33:14.851Z,7.57
2023-01-17T09:35:47.791Z,7.57
2023-01-17T09:38:21.795Z,7.49
2023-01-17T09:40:54.235Z,7.47
2023-01-17T09:43:35.451Z,7.51
2023-01-17T09:46:18.815Z,7.58
2023-01-17T09:48:54.683Z,7.70
2023-01-17T09:51:27.316Z,7.64
2023-01-17T09:54:00.326Z,7.57
2023-01-17T09:56:38.027Z,7.56
2023-01-17T09:59:32.732Z,7.75
2023-01-17T10:02:26.170Z,7.79
2023-01-17T10:05:27.841Z,7.88
2023-01-17T10:08:16.909Z,7.89
2023-01-17T10:11:05.174Z,7.88
2023-01-17T10:13:47.302Z,7.74
2023-01-17T10:16:32.371Z,7.89
2023-01-17T10:19:28.409Z,8.01
2023-01-17T10:22:12.124Z,8.13
2023-01-17T10:25:25.117Z,8.13
2023-01-17T10:28:00.350Z,8.26
2023-01-17T10:30:40.308Z,8.11
2023-01-17T10:33:19.301Z,8.13
2023-01-17T10:36:04.366Z,8.00
2023-01-17T10:38:41.734Z,7.98
2023-01-17T10:41:23.088Z,8.12
2023-01-17T10:44:07.973Z,8.14
2023-01-17T10:46:44.489Z,8.25
2023-01-17T10:49:21.346Z,8.27
2023-01-17T10:52:19.366Z,8.20
2023-01-17T10:55:05.281Z,8.13
2023-01-17T10:57:43.323Z,8.12
2023-01-17T11:00:34.258Z,7.98
2023-01-17T11:03:07.667Z,8.13
2023-01-17T11:05:43.268Z,8.03
2023-01-17T11:08:17.850Z,8.01
2023-01-17T11:10:54.502Z,8.00
2023-01-17T11:13:31.043Z,8.18
2023-01-17T11:16:07.684Z,8.05
2023-01-17T11:18:41.855Z,8.04
2023-01-17T11:21:18.523Z,8.09
2023-01-17T11:23:54.942Z,8.16
2023-01-17T11:26:29.621Z,8.15
2023-01-17T11:29:35.828Z,8.20
2023-01-17T11:32:34.234Z,8.40
2023-01-17T11:35:19.052Z,8.43
2023-01-17T11:37:53.717Z,8.28
2023-01-17T11:40:27.123Z,8.30
2023-01-17T11:43:22.084Z,8.32
2023-01-17T11:46:15.864Z,8.35
2023-01-17T11:48:55.962Z,8.41
2023-01-17T11:51:32.714Z,8.41
2023-01-17T11:54:18.253Z,8.40
2023-01-17T11:56:51.939Z,8.36
2023-01-17T11:59:28.748Z,8.37
2023-01-17T12:02:33.670Z,8.36
2023-01-17T12:05:29.279Z,8.59
2023-01-17T12:08:11.004Z,8.55
2023-01-17T12:10:52.320Z,8.39
2023-01-17T12:13:53.411Z,8.44
2023-01-17T12:16:36.981Z,8.17
2023-01-17T12:19:26.218Z,8.23
2023-01-17T12:22:12.934Z,8.26
2023-01-17T12:25:03.956Z,8.31
2023-01-17T12:27:45.495Z,8.26
2023-01-17T12:30:30.836Z,8.32
2023-01-17T12:33:19.164Z,8.29
2023-01-17T12:35:57.178Z,8.20
2023-01-17T12:38:36.008Z,8.34
2023-01-17T12:41:15.322Z,8.31
2023-01-17T12:43:48.102Z,8.48
2023-01-17T12:46:28.413Z,8.46
2023-01-17T12:49:04.778Z,8.34
2023-01-17T12:51:42.998Z,8.36
2023-01-17T12:54:25.389Z,8.38
2023-01-17T12:57:04.059Z,8.35
2023-01-17T12:59:43.801Z,8.19
2023-01-17T13:02:24.984Z,8.27
2023-01-17T13:05:05.400Z,8.27
2023-01-17T13:07:45.415Z,8.57
2023-01-17T13:10:35.558Z,8.68
2023-01-17T13:13:22.564Z,8.69
2023-01-17T13:15:59.078Z,8.68
2023-01-17T13:18:33.438Z,8.57
2023-01-17T13:21:31.345Z,8.79
2023-01-17T13:24:33.740Z,8.61
2023-01-17T13:27:35.088Z,8.51
2023-01-17T13:30:33.051Z,8.48
2023-01-17T13:33:29.764Z,8.41
2023-01-17T13:36:18.136Z,8.48
2023-01-17T13:39:02.207Z,8.43
2023-01-17T13:41:51.521Z,8.47
2023-01-17T13:44:30.194Z,8.39
2023-01-17T13:47:04.683Z,8.24
2023-01-17T13:49:48.593Z,8.16
2023-01-17T13:52:34.099Z,8.10
2023-01-17T13:55:08.610Z,8.16
2023-01-17T13:57:44.938Z,8.06
2023-01-17T14:00:55.132Z,7.61
2023-01-17T14:04:06.643Z,7.40
2023-01-17T14:06:45.428Z,7.48
2023-01-17T14:09:24.854Z,7.50
2023-01-17T14:12:01.085Z,7.43
2023-01-17T14:14:52.200Z,7.49
2023-01-17T14:17:49.129Z,7.32
2023-01-17T14:20:51.181Z,7.08
2023-01-17T14:23:52.629Z,7.25
2023-01-17T14:26:58.953Z,7.20
2023-01-17T14:29:50.972Z,7.27
2023-01-17T14:32:27.303Z,7.37
2023-01-17T14:35:00.529Z,7.31
2023-01-17T14:37:43.438Z,7.14
2023-01-17T14:40:21.866Z,7.25
2023-01-17T14:43:00.726Z,7.33
2023-01-17T14:45:35.134Z,7.53
2023-01-17T14:48:15.845Z,7.38
2023-01-17T14:50:49.903Z,7.37
2023-01-17T14:53:28.335Z,7.39
2023-01-17T14:56:03.377Z,7.41
2023-01-17T14:58:37.675Z,7.14
2023-01-17T15:01:14.863Z,7.22
2023-01-17T15:03:51.049Z,7.37
2023-01-17T15:06:26.310Z,7.49
2023-01-17T15:09:01.104Z,7.39
2023-01-17T15:11:37.361Z,7.41
2023-01-17T15:14:14.455Z,7.56
2023-01-17T15:16:46.936Z,7.41
2023-01-17T15:19:20.328Z,7.48
2023-01-17T15:21:55.043Z,7.42
2023-01-17T15:24:34.543Z,7.47
2023-01-17T15:27:08.070Z,7.49
2023-01-17T15:29:43.208Z,7.50
2023-01-17T15:32:24.196Z,7.31
2023-01-17T15:34:57.272Z,7.40
2023-01-17T15:37:34.097Z,7.40
2023-01-17T15:40:18.824Z,7.38
2023-01-17T15:42:56.636Z,7.38
2023-01-17T15:45:31.875Z,7.34
2023-01-17T15:48:34.785Z,7.30
2023-01-17T15:51:07.923Z,7.21
2023-01-17T15:53:43.352Z,7.19
2023-01-17T15:56:30.999Z,7.16
2023-01-17T15:59:30.582Z,7.02
2023-01-17T16:02:03.562Z,7.10
2023-01-17T16:04:37.802Z,6.98
2023-01-17T16:07:20.437Z,6.97
2023-01-17T16:09:53.002Z,6.94
2023-01-17T16:12:25.480Z,6.89
2023-01-17T16:15:11.258Z,6.83
2023-01-17T16:17:46.788Z,6.75
2023-01-17T16:20:22.697Z,6.84
2023-01-17T16:22:55.208Z,6.79
2023-01-17T16:25:32.362Z,6.71
2023-01-17T16:28:05.564Z,6.68
2023-01-17T16:30:38.553Z,6.59
2023-01-17T16:33:14.551Z,6.64
2023-01-17T16:35:47.132Z,6.79
2023-01-17T16:38:20.594Z,6.66
2023-01-17T16:40:53.256Z,6.44
2023-01-17T16:43:25.866Z,6.64
2023-01-17T16:45:58.362Z,6.72
2023-01-17T16:48:30.880Z,6.76
2023-01-17T16:51:08.793Z,6.76
2023-01-17T16:53:41.509Z,6.73
2023-01-17T16:56:17.083Z,6.73
2023-01-17T16:58:49.652Z,6.69
2023-01-17T17:01:22.938Z,6.68
2023-01-17T17:03:55.830Z,6.64
2023-01-17T17:06:28.268Z,6.65
2023-01-17T17:09:01.636Z,6.61
2023-01-17T17:11:34.271Z,6.55
2023-01-17T17:14:08.337Z,6.51
2023-01-17T17:16:40.746Z,6.51
2023-01-17T17:19:13.747Z,6.51
2023-01-17T17:21:46.517Z,6.49
2023-01-17T17:24:19.483Z,6.47
2023-01-17T17:26:52.067Z,6.24
2023-01-17T17:29:24.664Z,6.30
2023-01-17T17:31:57.142Z,6.21
2023-01-17T17:34:31.961Z,6.35
2023-01-17T17:37:04.452Z,6.30
2023-01-17T17:39:37.061Z,6.25
2023-01-17T17:42:09.458Z,6.25
2023-01-17T17:44:42.087Z,6.18
2023-01-17T17:47:16.152Z,6.27
2023-01-17T17:49:48.795Z,6.26
2023-01-17T17:52:21.447Z,6.20
2023-01-17T17:54:54.006Z,6.17
2023-01-17T17:57:27.116Z,6.12
2023-01-17T18:00:02.162Z,6.04
2023-01-17T18:02:39.278Z,6.15
2023-01-17T18:05:15.145Z,6.12
2023-01-17T18:07:49.342Z,6.10
2023-01-17T18:10:25.823Z,6.05
2023-01-17T18:13:01.340Z,6.03
2023-01-17T18:15:34.486Z,5.99
2023-01-17T18:18:08.326Z,5.95
2023-01-17T18:20:45.245Z,5.91
2023-01-17T18:23:17.618Z,5.88
2023-01-17T18:25:51.191Z,5.86
2023-01-17T18:28:23.745Z,5.81
2023-01-17T18:30:56.552Z,5.78
2023-01-17T18:33:45.156Z,5.74
2023-01-17T18:36:29.312Z,5.72
2023-01-17T18:39:02.097Z,5.70
2023-01-17T18:41:51.758Z,5.68
2023-01-17T18:44:33.252Z,5.66
2023-01-17T18:47:11.050Z,5.63
2023-01-17T18:49:43.442Z,5.60
2023-01-17T18:52:17.759Z,5.56
2023-01-17T18:54:50.171Z,5.52
2023-01-17T19:00:51.446Z,5.41
2023-01-17T19:03:31.671Z,5.36
2023-01-17T19:06:13.774Z,5.32
2023-01-17T19:08:59.379Z,5.27
2023-01-17T19:11:38.206Z,5.27
2023-01-17T19:14:11.910Z,5.27
2023-01-17T19:16:45.059Z,5.25
2023-01-17T19:19:50.121Z,5.25
2023-01-17T19:22:24.180Z,5.22
2023-01-17T19:24:56.746Z,5.23
2023-01-17T19:27:32.349Z,5.22
2023-01-17T19:30:05.481Z,5.23
2023-01-17T19:32:39.252Z,5.01
2023-01-17T19:35:17.669Z,5.22
2023-01-17T19:37:53.401Z,5.13
2023-01-17T19:40:27.048Z,5.20
2023-01-17T19:43:09.902Z,5.21
2023-01-17T19:46:18.834Z,5.19
2023-01-17T19:49:00.206Z,5.19
2023-01-17T19:51:32.862Z,5.19
2023-01-17T19:54:06.595Z,5.08
2023-01-17T19:56:39.471Z,5.17
2023-01-17T19:59:20.287Z,5.17
2023-01-17T20:02:02.525Z,5.16
2023-01-17T20:04:44.273Z,5.15
2023-01-17T20:07:17.307Z,5.16
2023-01-17T20:09:49.803Z,5.18
2023-01-17T20:12:22.803Z,5.17
2023-01-17T20:14:55.596Z,5.15
2023-01-17T20:17:28.281Z,5.12
2023-01-17T20:20:00.870Z,5.09
2023-01-17T20:22:33.709Z,5.09
2023-01-17T20:25:07.598Z,4.92
2023-01-17T20:27:40.932Z,4.99
2023-01-17T20:30:20.495Z,4.94
2023-01-17T20:32:53.709Z,4.89
2023-01-17T20:35:28.570Z,4.83
2023-01-17T20:38:01.069Z,4.69
2023-01-17T20:40:33.420Z,4.77
2023-01-17T20:43:06.351Z,4.75
2023-01-17T20:45:39.225Z,4.72
2023-01-17T20:48:12.328Z,4.68
2023-01-17T20:50:44.981Z,4.64
2023-01-17T20:53:19.428Z,4.62
2023-01-17T20:55:58.417Z,4.57
2023-01-17T20:58:31.485Z,4.58
2023-01-17T21:01:04.478Z,4.57
2023-01-17T21:03:38.912Z,4.56
2023-01-17T21:06:13.810Z,4.56
2023-01-17T21:08:48.476Z,4.55
2023-01-17T21:11:22.594Z,4.50
2023-01-17T21:13:56.525Z,4.49
2023-01-17T21:16:29.749Z,4.47
2023-01-17T21:19:02.802Z,4.45
2023-01-17T21:21:35.301Z,4.42
2023-01-17T21:24:09.867Z,4.40
2023-01-17T21:26:44.464Z,4.40
2023-01-17T21:29:17.027Z,4.38
2023-01-17T21:31:49.708Z,4.40
2023-01-17T21:34:24.579Z,4.40
2023-01-17T21:36:57.811Z,4.37
2023-01-17T21:39:31.657Z,4.36
2023-01-17T21:42:04.052Z,4.34
2023-01-17T21:44:38.042Z,4.35
2023-01-17T21:47:10.658Z,4.31
2023-01-17T21:49:43.264Z,4.30
2023-01-17T21:52:21.793Z,4.32
2023-01-17T21:55:14.361Z,4.32
2023-01-17T21:58:04.446Z,4.32
2023-01-17T22:00:37.090Z,4.36
2023-01-17T22:03:09.598Z,4.38
2023-01-17T22:05:42.074Z,4.38
2023-01-17T22:08:17.772Z,4.40
2023-01-17T22:10:50.327Z,4.40
2023-01-17T22:13:22.793Z,4.45
2023-01-17T22:16:02.896Z,4.43
2023-01-17T22:18:38.354Z,4.42
2023-01-17T22:21:14.528Z,4.33
2023-01-17T22:23:50.168Z,4.43
2023-01-17T22:26:24.539Z,4.41
2023-01-17T22:29:00.596Z,4.40
2023-01-17T22:31:33.642Z,4.39
2023-01-17T22:34:07.007Z,4.29
2023-01-17T22:36:40.729Z,4.38
2023-01-17T22:39:13.878Z,4.35
2023-01-17T22:41:46.482Z,4.33
2023-01-17T22:44:18.907Z,4.32
2023-01-17T22:46:51.591Z,4.23
2023-01-17T22:49:24.617Z,4.32
2023-01-17T22:51:57.352Z,4.33
2023-01-17T22:54:29.878Z,4.31
2023-01-17T22:57:02.399Z,4.22
2023-01-17T22:59:35.415Z,4.34
2023-01-17T23:02:08.314Z,4.34
2023-01-17T23:04:40.839Z,4.35
2023-01-17T23:07:13.541Z,4.24
2023-01-17T23:09:46.040Z,4.33
2023-01-17T23:12:18.925Z,4.27
2023-01-17T23:15:08.809Z,4.28
2023-01-17T23:18:00.057Z,4.26
2023-01-17T23:20:32.706Z,4.24
2023-01-17T23:23:05.325Z,4.22
2023-01-17T23:25:37.761Z,4.03
2023-01-17T23:28:20.684Z,4.18
2023-01-17T23:30:53.214Z,4.17
2023-01-17T23:33:25.909Z,4.16
2023-01-17T23:35:58.327Z,4.13
2023-01-17T23:38:30.931Z,4.14
2023-01-17T23:41:19.355Z,4.14
2023-01-17T23:43:55.170Z,4.13
2023-01-17T23:46:30.226Z,4.15
2023-01-17T23:49:03.803Z,4.13
2023-01-17T23:51:36.254Z,4.12
2023-01-17T23:54:08.886Z,4.12
2023-01-17T23:56:41.276Z,4.11
2023-01-17T23:59:14.020Z,4.11
